sensor_id;sensor_type;location;lat;lon;timestamp;P1;durP1;ratioP1;P2;durP2;ratioP2
80229;SDS011;69540;42.136;24.742;2023-06-05T00:00:38;1.77;;;1.67;;
80229;SDS011;69540;42.136;24.742;2023-06-05T00:03:03;1.55;;;1.45;;
80229;SDS011;69540;42.136;24.742;2023-06-05T00:05:29;1.40;;;1.40;;
80229;SDS011;69540;42.136;24.742;2023-06-05T00:07:56;1.52;;;1.42;;
80229;SDS011;69540;42.136;24.742;2023-06-05T00:10:22;1.23;;;1.23;;
80229;SDS011;69540;42.136;24.742;2023-06-05T00:12:48;1.77;;;1.67;;
80229;SDS011;69540;42.136;24.742;2023-06-05T00:15:14;1.48;;;1.48;;
80229;SDS011;69540;42.136;24.742;2023-06-05T00:17:40;1.52;;;1.42;;
80229;SDS011;69540;42.136;24.742;2023-06-05T00:20:06;1.38;;;1.38;;
80229;SDS011;69540;42.136;24.742;2023-06-05T00:22:34;1.17;;;1.17;;
80229;SDS011;69540;42.136;24.742;2023-06-05T00:25:00;1.35;;;1.33;;
80229;SDS011;69540;42.136;24.742;2023-06-05T00:27:27;1.40;;;1.35;;
80229;SDS011;69540;42.136;24.742;2023-06-05T00:29:53;1.45;;;1.35;;
80229;SDS011;69540;42.136;24.742;2023-06-05T00:32:18;1.60;;;1.50;;
80229;SDS011;69540;42.136;24.742;2023-06-05T00:34:44;1.25;;;1.25;;
80229;SDS011;69540;42.136;24.742;2023-06-05T00:37:11;1.10;;;1.10;;
80229;SDS011;69540;42.136;24.742;2023-06-05T00:39:40;1.55;;;1.48;;
80229;SDS011;69540;42.136;24.742;2023-06-05T00:42:07;1.50;;;1.40;;
80229;SDS011;69540;42.136;24.742;2023-06-05T00:44:36;1.65;;;1.55;;
80229;SDS011;69540;42.136;24.742;2023-06-05T00:47:02;1.80;;;1.70;;
80229;SDS011;69540;42.136;24.742;2023-06-05T00:49:30;1.58;;;1.48;;
80229;SDS011;69540;42.136;24.742;2023-06-05T00:51:56;1.30;;;1.30;;
80229;SDS011;69540;42.136;24.742;2023-06-05T00:54:22;1.48;;;1.48;;
80229;SDS011;69540;42.136;24.742;2023-06-05T00:56:48;1.30;;;1.30;;
80229;SDS011;69540;42.136;24.742;2023-06-05T00:59:14;1.25;;;1.25;;
80229;SDS011;69540;42.136;24.742;2023-06-05T01:01:40;1.50;;;1.50;;
80229;SDS011;69540;42.136;24.742;2023-06-05T01:04:08;1.15;;;1.15;;
80229;SDS011;69540;42.136;24.742;2023-06-05T01:06:34;1.48;;;1.38;;
80229;SDS011;69540;42.136;24.742;2023-06-05T01:09:03;1.27;;;1.27;;
80229;SDS011;69540;42.136;24.742;2023-06-05T01:16:47;1.48;;;1.45;;
80229;SDS011;69540;42.136;24.742;2023-06-05T01:19:19;1.42;;;1.42;;
80229;SDS011;69540;42.136;24.742;2023-06-05T01:21:46;1.40;;;1.40;;
80229;SDS011;69540;42.136;24.742;2023-06-05T01:24:12;1.40;;;1.40;;
80229;SDS011;69540;42.136;24.742;2023-06-05T01:26:45;1.20;;;1.20;;
80229;SDS011;69540;42.136;24.742;2023-06-05T01:29:17;1.35;;;1.25;;
80229;SDS011;69540;42.136;24.742;2023-06-05T01:31:50;1.60;;;1.50;;
80229;SDS011;69540;42.136;24.742;2023-06-05T01:34:21;1.60;;;1.50;;
80229;SDS011;69540;42.136;24.742;2023-06-05T01:36:49;1.27;;;1.27;;
80229;SDS011;69540;42.136;24.742;2023-06-05T01:39:16;1.50;;;1.40;;
80229;SDS011;69540;42.136;24.742;2023-06-05T01:41:43;1.52;;;1.50;;
80229;SDS011;69540;42.136;24.742;2023-06-05T01:44:11;1.67;;;1.50;;
80229;SDS011;69540;42.136;24.742;2023-06-05T01:46:40;1.85;;;1.75;;
80229;SDS011;69540;42.136;24.742;2023-06-05T01:49:07;1.10;;;1.10;;
80229;SDS011;69540;42.136;24.742;2023-06-05T01:51:33;1.40;;;1.30;;
80229;SDS011;69540;42.136;24.742;2023-06-05T01:53:59;1.48;;;1.40;;
80229;SDS011;69540;42.136;24.742;2023-06-05T01:56:25;1.48;;;1.40;;
80229;SDS011;69540;42.136;24.742;2023-06-05T01:58:52;1.42;;;1.33;;
80229;SDS011;69540;42.136;24.742;2023-06-05T02:01:20;1.27;;;1.20;;
80229;SDS011;69540;42.136;24.742;2023-06-05T02:03:48;1.75;;;1.45;;
80229;SDS011;69540;42.136;24.742;2023-06-05T02:06:15;1.50;;;1.40;;
80229;SDS011;69540;42.136;24.742;2023-06-05T02:08:41;1.38;;;1.27;;
80229;SDS011;69540;42.136;24.742;2023-06-05T02:11:08;1.63;;;1.52;;
80229;SDS011;69540;42.136;24.742;2023-06-05T02:13:37;1.70;;;1.60;;
80229;SDS011;69540;42.136;24.742;2023-06-05T02:16:04;1.30;;;1.20;;
80229;SDS011;69540;42.136;24.742;2023-06-05T02:18:30;1.52;;;1.45;;
80229;SDS011;69540;42.136;24.742;2023-06-05T02:20:57;1.52;;;1.42;;
80229;SDS011;69540;42.136;24.742;2023-06-05T02:23:23;1.30;;;1.20;;
80229;SDS011;69540;42.136;24.742;2023-06-05T02:25:49;1.52;;;1.30;;
80229;SDS011;69540;42.136;24.742;2023-06-05T02:28:15;1.48;;;1.40;;
80229;SDS011;69540;42.136;24.742;2023-06-05T02:30:41;1.63;;;1.52;;
80229;SDS011;69540;42.136;24.742;2023-06-05T02:33:09;1.38;;;1.27;;
80229;SDS011;69540;42.136;24.742;2023-06-05T02:35:36;1.40;;;1.30;;
80229;SDS011;69540;42.136;24.742;2023-06-05T02:38:02;1.55;;;1.45;;
80229;SDS011;69540;42.136;24.742;2023-06-05T02:40:30;1.40;;;1.30;;
80229;SDS011;69540;42.136;24.742;2023-06-05T02:42:56;1.60;;;1.50;;
80229;SDS011;69540;42.136;24.742;2023-06-05T02:45:22;1.48;;;1.38;;
80229;SDS011;69540;42.136;24.742;2023-06-05T02:47:50;1.50;;;1.40;;
80229;SDS011;69540;42.136;24.742;2023-06-05T02:50:16;1.60;;;1.50;;
80229;SDS011;69540;42.136;24.742;2023-06-05T02:52:41;1.30;;;1.30;;
80229;SDS011;69540;42.136;24.742;2023-06-05T02:55:07;1.42;;;1.33;;
80229;SDS011;69540;42.136;24.742;2023-06-05T02:57:33;1.50;;;1.40;;
80229;SDS011;69540;42.136;24.742;2023-06-05T03:00:08;1.27;;;1.27;;
80229;SDS011;69540;42.136;24.742;2023-06-05T03:02:34;1.35;;;1.30;;
80229;SDS011;69540;42.136;24.742;2023-06-05T03:05:03;1.38;;;1.38;;
80229;SDS011;69540;42.136;24.742;2023-06-05T03:07:29;1.63;;;1.52;;
80229;SDS011;69540;42.136;24.742;2023-06-05T03:09:55;1.33;;;1.30;;
80229;SDS011;69540;42.136;24.742;2023-06-05T03:12:21;1.40;;;1.30;;
80229;SDS011;69540;42.136;24.742;2023-06-05T03:14:46;1.45;;;1.35;;
80229;SDS011;69540;42.136;24.742;2023-06-05T03:17:12;1.00;;;1.00;;
80229;SDS011;69540;42.136;24.742;2023-06-05T03:19:37;1.30;;;1.30;;
80229;SDS011;69540;42.136;24.742;2023-06-05T03:22:03;1.42;;;1.33;;
80229;SDS011;69540;42.136;24.742;2023-06-05T03:24:30;1.30;;;1.20;;
80229;SDS011;69540;42.136;24.742;2023-06-05T03:26:55;1.15;;;1.15;;
80229;SDS011;69540;42.136;24.742;2023-06-05T03:29:21;1.40;;;1.30;;
80229;SDS011;69540;42.136;24.742;2023-06-05T03:31:47;1.38;;;1.30;;
80229;SDS011;69540;42.136;24.742;2023-06-05T03:34:12;1.20;;;1.20;;
80229;SDS011;69540;42.136;24.742;2023-06-05T03:36:38;1.17;;;1.17;;
80229;SDS011;69540;42.136;24.742;2023-06-05T03:39:04;1.63;;;1.52;;
80229;SDS011;69540;42.136;24.742;2023-06-05T03:41:31;4.30;;;2.10;;
80229;SDS011;69540;42.136;24.742;2023-06-05T03:43:56;3.70;;;2.03;;
80229;SDS011;69540;42.136;24.742;2023-06-05T03:46:22;1.92;;;1.73;;
80229;SDS011;69540;42.136;24.742;2023-06-05T03:48:48;2.58;;;1.90;;
80229;SDS011;69540;42.136;24.742;2023-06-05T03:51:15;2.63;;;1.90;;
80229;SDS011;69540;42.136;24.742;2023-06-05T03:53:44;3.42;;;1.98;;
80229;SDS011;69540;42.136;24.742;2023-06-05T03:56:10;3.00;;;1.83;;
80229;SDS011;69540;42.136;24.742;2023-06-05T03:58:40;1.75;;;1.65;;
80229;SDS011;69540;42.136;24.742;2023-06-05T04:01:06;3.85;;;2.05;;
80229;SDS011;69540;42.136;24.742;2023-06-05T04:03:32;4.63;;;2.13;;
80229;SDS011;69540;42.136;24.742;2023-06-05T04:05:59;3.55;;;1.80;;
80229;SDS011;69540;42.136;24.742;2023-06-05T04:08:25;5.95;;;1.92;;
80229;SDS011;69540;42.136;24.742;2023-06-05T04:10:52;2.83;;;2.10;;
80229;SDS011;69540;42.136;24.742;2023-06-05T04:13:17;4.82;;;2.20;;
80229;SDS011;69540;42.136;24.742;2023-06-05T04:15:43;4.15;;;2.33;;
80229;SDS011;69540;42.136;24.742;2023-06-05T04:18:09;4.13;;;2.30;;
80229;SDS011;69540;42.136;24.742;2023-06-05T04:20:35;4.82;;;2.40;;
80229;SDS011;69540;42.136;24.742;2023-06-05T04:23:00;4.00;;;2.53;;
80229;SDS011;69540;42.136;24.742;2023-06-05T04:25:26;5.32;;;2.30;;
80229;SDS011;69540;42.136;24.742;2023-06-05T04:27:54;6.35;;;2.92;;
80229;SDS011;69540;42.136;24.742;2023-06-05T04:30:20;5.18;;;2.90;;
80229;SDS011;69540;42.136;24.742;2023-06-05T04:32:46;4.75;;;2.80;;
80229;SDS011;69540;42.136;24.742;2023-06-05T04:35:19;3.97;;;2.58;;
80229;SDS011;69540;42.136;24.742;2023-06-05T04:37:48;3.08;;;2.75;;
80229;SDS011;69540;42.136;24.742;2023-06-05T04:40:14;4.65;;;2.60;;
80229;SDS011;69540;42.136;24.742;2023-06-05T04:42:42;4.10;;;2.70;;
80229;SDS011;69540;42.136;24.742;2023-06-05T04:45:07;3.47;;;2.35;;
80229;SDS011;69540;42.136;24.742;2023-06-05T04:47:33;7.20;;;2.45;;
80229;SDS011;69540;42.136;24.742;2023-06-05T04:50:00;5.82;;;2.75;;
80229;SDS011;69540;42.136;24.742;2023-06-05T04:52:33;4.25;;;2.67;;
80229;SDS011;69540;42.136;24.742;2023-06-05T04:55:06;5.22;;;2.70;;
80229;SDS011;69540;42.136;24.742;2023-06-05T04:57:32;4.70;;;2.67;;
80229;SDS011;69540;42.136;24.742;2023-06-05T04:59:57;6.32;;;2.65;;
80229;SDS011;69540;42.136;24.742;2023-06-05T05:02:23;4.22;;;2.30;;
80229;SDS011;69540;42.136;24.742;2023-06-05T05:04:49;3.30;;;2.35;;
80229;SDS011;69540;42.136;24.742;2023-06-05T05:07:15;5.32;;;3.00;;
80229;SDS011;69540;42.136;24.742;2023-06-05T05:09:41;5.55;;;2.72;;
80229;SDS011;69540;42.136;24.742;2023-06-05T05:12:08;3.95;;;2.53;;
80229;SDS011;69540;42.136;24.742;2023-06-05T05:14:37;5.15;;;2.70;;
80229;SDS011;69540;42.136;24.742;2023-06-05T05:17:05;2.63;;;2.42;;
80229;SDS011;69540;42.136;24.742;2023-06-05T05:19:30;3.78;;;2.35;;
80229;SDS011;69540;42.136;24.742;2023-06-05T05:21:57;4.32;;;2.42;;
80229;SDS011;69540;42.136;24.742;2023-06-05T05:24:23;5.43;;;2.90;;
80229;SDS011;69540;42.136;24.742;2023-06-05T05:26:50;5.80;;;2.80;;
80229;SDS011;69540;42.136;24.742;2023-06-05T05:29:16;4.03;;;2.60;;
80229;SDS011;69540;42.136;24.742;2023-06-05T05:31:42;5.40;;;2.90;;
80229;SDS011;69540;42.136;24.742;2023-06-05T05:34:09;2.70;;;2.28;;
80229;SDS011;69540;42.136;24.742;2023-06-05T05:36:34;4.68;;;2.67;;
80229;SDS011;69540;42.136;24.742;2023-06-05T05:39:01;4.35;;;2.53;;
80229;SDS011;69540;42.136;24.742;2023-06-05T05:41:28;4.90;;;2.63;;
80229;SDS011;69540;42.136;24.742;2023-06-05T05:43:53;3.88;;;2.45;;
80229;SDS011;69540;42.136;24.742;2023-06-05T05:46:19;3.40;;;2.50;;
80229;SDS011;69540;42.136;24.742;2023-06-05T05:48:45;4.13;;;2.35;;
80229;SDS011;69540;42.136;24.742;2023-06-05T05:51:10;2.72;;;2.53;;
80229;SDS011;69540;42.136;24.742;2023-06-05T05:53:36;4.28;;;2.67;;
80229;SDS011;69540;42.136;24.742;2023-06-05T05:56:02;3.17;;;2.40;;
80229;SDS011;69540;42.136;24.742;2023-06-05T05:58:31;5.65;;;2.58;;
80229;SDS011;69540;42.136;24.742;2023-06-05T06:00:56;4.50;;;2.58;;
80229;SDS011;69540;42.136;24.742;2023-06-05T06:03:24;3.63;;;2.67;;
80229;SDS011;69540;42.136;24.742;2023-06-05T06:05:53;3.80;;;2.90;;
80229;SDS011;69540;42.136;24.742;2023-06-05T06:08:19;3.15;;;2.75;;
80229;SDS011;69540;42.136;24.742;2023-06-05T06:10:45;4.63;;;2.90;;
80229;SDS011;69540;42.136;24.742;2023-06-05T06:13:12;3.78;;;3.05;;
80229;SDS011;69540;42.136;24.742;2023-06-05T06:15:38;4.50;;;3.15;;
80229;SDS011;69540;42.136;24.742;2023-06-05T06:18:07;4.57;;;3.40;;
80229;SDS011;69540;42.136;24.742;2023-06-05T06:20:32;4.90;;;3.35;;
80229;SDS011;69540;42.136;24.742;2023-06-05T06:22:58;4.82;;;3.45;;
80229;SDS011;69540;42.136;24.742;2023-06-05T06:25:24;4.35;;;3.05;;
80229;SDS011;69540;42.136;24.742;2023-06-05T06:27:56;4.53;;;3.15;;
80229;SDS011;69540;42.136;24.742;2023-06-05T06:30:24;4.03;;;2.95;;
80229;SDS011;69540;42.136;24.742;2023-06-05T06:32:49;4.50;;;3.50;;
80229;SDS011;69540;42.136;24.742;2023-06-05T06:35:15;3.42;;;3.13;;
80229;SDS011;69540;42.136;24.742;2023-06-05T06:37:41;4.40;;;3.80;;
80229;SDS011;69540;42.136;24.742;2023-06-05T06:40:07;5.88;;;4.60;;
80229;SDS011;69540;42.136;24.742;2023-06-05T06:42:36;4.85;;;4.18;;
80229;SDS011;69540;42.136;24.742;2023-06-05T06:45:02;6.80;;;4.22;;
80229;SDS011;69540;42.136;24.742;2023-06-05T06:47:29;5.22;;;4.15;;
80229;SDS011;69540;42.136;24.742;2023-06-05T06:49:55;5.55;;;4.10;;
80229;SDS011;69540;42.136;24.742;2023-06-05T06:52:22;4.63;;;4.18;;
80229;SDS011;69540;42.136;24.742;2023-06-05T06:54:47;5.32;;;4.22;;
80229;SDS011;69540;42.136;24.742;2023-06-05T06:57:13;8.43;;;4.95;;
80229;SDS011;69540;42.136;24.742;2023-06-05T06:59:39;7.65;;;4.90;;
80229;SDS011;69540;42.136;24.742;2023-06-05T07:02:12;5.53;;;4.72;;
80229;SDS011;69540;42.136;24.742;2023-06-05T07:04:39;5.85;;;4.65;;
80229;SDS011;69540;42.136;24.742;2023-06-05T07:07:13;5.07;;;4.57;;
80229;SDS011;69540;42.136;24.742;2023-06-05T07:09:43;5.15;;;4.57;;
80229;SDS011;69540;42.136;24.742;2023-06-05T07:12:10;4.85;;;3.97;;
80229;SDS011;69540;42.136;24.742;2023-06-05T07:14:37;5.85;;;4.63;;
80229;SDS011;69540;42.136;24.742;2023-06-05T07:17:03;7.07;;;5.43;;
80229;SDS011;69540;42.136;24.742;2023-06-05T07:19:29;8.38;;;5.65;;
80229;SDS011;69540;42.136;24.742;2023-06-05T07:21:56;9.00;;;5.88;;
80229;SDS011;69540;42.136;24.742;2023-06-05T07:24:25;7.75;;;6.25;;
80229;SDS011;69540;42.136;24.742;2023-06-05T07:26:55;9.50;;;6.43;;
80229;SDS011;69540;42.136;24.742;2023-06-05T07:29:21;10.23;;;7.07;;
80229;SDS011;69540;42.136;24.742;2023-06-05T07:31:49;9.15;;;6.70;;
80229;SDS011;69540;42.136;24.742;2023-06-05T07:34:17;11.00;;;7.05;;
80229;SDS011;69540;42.136;24.742;2023-06-05T07:36:44;10.43;;;7.40;;
80229;SDS011;69540;42.136;24.742;2023-06-05T07:39:10;9.85;;;6.65;;
80229;SDS011;69540;42.136;24.742;2023-06-05T07:41:37;10.35;;;7.70;;
80229;SDS011;69540;42.136;24.742;2023-06-05T07:44:04;9.07;;;7.30;;
80229;SDS011;69540;42.136;24.742;2023-06-05T07:46:31;9.68;;;6.93;;
80229;SDS011;69540;42.136;24.742;2023-06-05T07:48:57;11.00;;;7.45;;
80229;SDS011;69540;42.136;24.742;2023-06-05T07:51:22;8.82;;;7.20;;
80229;SDS011;69540;42.136;24.742;2023-06-05T07:53:48;9.30;;;6.88;;
80229;SDS011;69540;42.136;24.742;2023-06-05T07:56:13;9.05;;;7.10;;
80229;SDS011;69540;42.136;24.742;2023-06-05T07:58:41;8.48;;;6.97;;
80229;SDS011;69540;42.136;24.742;2023-06-05T08:01:07;9.73;;;7.10;;
80229;SDS011;69540;42.136;24.742;2023-06-05T08:03:33;8.25;;;6.70;;
80229;SDS011;69540;42.136;24.742;2023-06-05T08:05:59;9.15;;;7.50;;
80229;SDS011;69540;42.136;24.742;2023-06-05T08:08:25;7.28;;;6.18;;
80229;SDS011;69540;42.136;24.742;2023-06-05T08:10:51;8.32;;;6.68;;
80229;SDS011;69540;42.136;24.742;2023-06-05T08:13:17;7.63;;;6.50;;
80229;SDS011;69540;42.136;24.742;2023-06-05T08:15:42;9.30;;;6.90;;
80229;SDS011;69540;42.136;24.742;2023-06-05T08:18:08;8.13;;;6.40;;
80229;SDS011;69540;42.136;24.742;2023-06-05T08:20:34;7.55;;;6.70;;
80229;SDS011;69540;42.136;24.742;2023-06-05T08:23:00;6.88;;;6.15;;
80229;SDS011;69540;42.136;24.742;2023-06-05T08:25:26;8.85;;;7.10;;
80229;SDS011;69540;42.136;24.742;2023-06-05T08:27:52;7.20;;;6.45;;
80229;SDS011;69540;42.136;24.742;2023-06-05T08:30:19;7.03;;;6.32;;
80229;SDS011;69540;42.136;24.742;2023-06-05T08:32:45;7.70;;;6.93;;
80229;SDS011;69540;42.136;24.742;2023-06-05T08:35:11;7.95;;;6.30;;
80229;SDS011;69540;42.136;24.742;2023-06-05T08:37:37;8.15;;;6.38;;
80229;SDS011;69540;42.136;24.742;2023-06-05T08:40:04;8.15;;;6.20;;
80229;SDS011;69540;42.136;24.742;2023-06-05T08:42:37;7.43;;;6.35;;
80229;SDS011;69540;42.136;24.742;2023-06-05T08:45:04;6.85;;;6.03;;
80229;SDS011;69540;42.136;24.742;2023-06-05T08:47:32;8.70;;;6.70;;
80229;SDS011;69540;42.136;24.742;2023-06-05T08:50:03;7.93;;;6.65;;
80229;SDS011;69540;42.136;24.742;2023-06-05T08:52:31;7.55;;;6.70;;
80229;SDS011;69540;42.136;24.742;2023-06-05T08:54:59;7.07;;;6.38;;
80229;SDS011;69540;42.136;24.742;2023-06-05T08:57:26;8.38;;;6.57;;
80229;SDS011;69540;42.136;24.742;2023-06-05T08:59:53;6.72;;;6.03;;
80229;SDS011;69540;42.136;24.742;2023-06-05T09:02:19;9.48;;;6.75;;
80229;SDS011;69540;42.136;24.742;2023-06-05T09:04:44;9.20;;;6.47;;
80229;SDS011;69540;42.136;24.742;2023-06-05T09:07:11;7.63;;;6.13;;
80229;SDS011;69540;42.136;24.742;2023-06-05T09:09:37;8.05;;;6.70;;
80229;SDS011;69540;42.136;24.742;2023-06-05T09:12:03;7.45;;;6.40;;
80229;SDS011;69540;42.136;24.742;2023-06-05T09:14:31;7.03;;;6.05;;
80229;SDS011;69540;42.136;24.742;2023-06-05T09:16:57;7.22;;;6.43;;
80229;SDS011;69540;42.136;24.742;2023-06-05T09:19:24;7.32;;;6.47;;
80229;SDS011;69540;42.136;24.742;2023-06-05T09:21:53;7.10;;;6.40;;
80229;SDS011;69540;42.136;24.742;2023-06-05T09:24:22;7.22;;;6.15;;
80229;SDS011;69540;42.136;24.742;2023-06-05T09:26:53;7.47;;;5.85;;
80229;SDS011;69540;42.136;24.742;2023-06-05T09:29:24;6.80;;;6.00;;
80229;SDS011;69540;42.136;24.742;2023-06-05T09:31:51;6.93;;;6.10;;
80229;SDS011;69540;42.136;24.742;2023-06-05T09:34:27;8.73;;;6.00;;
80229;SDS011;69540;42.136;24.742;2023-06-05T09:37:01;6.97;;;6.03;;
80229;SDS011;69540;42.136;24.742;2023-06-05T09:39:28;6.18;;;5.45;;
80229;SDS011;69540;42.136;24.742;2023-06-05T09:41:55;6.68;;;5.43;;
80229;SDS011;69540;42.136;24.742;2023-06-05T09:44:22;6.65;;;5.78;;
80229;SDS011;69540;42.136;24.742;2023-06-05T09:46:55;6.15;;;5.55;;
80229;SDS011;69540;42.136;24.742;2023-06-05T09:49:27;5.38;;;4.85;;
80229;SDS011;69540;42.136;24.742;2023-06-05T09:51:57;5.20;;;4.68;;
80229;SDS011;69540;42.136;24.742;2023-06-05T09:54:30;5.63;;;5.07;;
80229;SDS011;69540;42.136;24.742;2023-06-05T09:57:01;4.72;;;4.22;;
80229;SDS011;69540;42.136;24.742;2023-06-05T09:59:31;6.53;;;5.10;;
80229;SDS011;69540;42.136;24.742;2023-06-05T10:02:04;5.22;;;4.72;;
80229;SDS011;69540;42.136;24.742;2023-06-05T10:04:37;6.30;;;5.20;;
80229;SDS011;69540;42.136;24.742;2023-06-05T10:07:11;5.72;;;4.55;;
80229;SDS011;69540;42.136;24.742;2023-06-05T10:09:37;5.10;;;4.60;;
80229;SDS011;69540;42.136;24.742;2023-06-05T10:12:05;5.30;;;4.80;;
80229;SDS011;69540;42.136;24.742;2023-06-05T10:14:34;5.88;;;4.43;;
80229;SDS011;69540;42.136;24.742;2023-06-05T10:17:00;6.22;;;4.30;;
80229;SDS011;69540;42.136;24.742;2023-06-05T10:19:27;4.65;;;4.25;;
80229;SDS011;69540;42.136;24.742;2023-06-05T10:21:53;5.13;;;4.38;;
80229;SDS011;69540;42.136;24.742;2023-06-05T10:24:33;4.38;;;3.97;;
80229;SDS011;69540;42.136;24.742;2023-06-05T10:34:56;4.57;;;4.07;;
80229;SDS011;69540;42.136;24.742;2023-06-05T10:37:56;5.60;;;4.20;;
80229;SDS011;69540;42.136;24.742;2023-06-05T10:40:42;4.50;;;3.90;;
80229;SDS011;69540;42.136;24.742;2023-06-05T10:49:11;4.20;;;3.85;;
80229;SDS011;69540;42.136;24.742;2023-06-05T10:54:14;4.83;;;3.80;;
80229;SDS011;69540;42.136;24.742;2023-06-05T10:57:04;3.55;;;3.30;;
80229;SDS011;69540;42.136;24.742;2023-06-05T10:59:35;5.35;;;3.42;;
80229;SDS011;69540;42.136;24.742;2023-06-05T11:07:15;3.97;;;3.60;;
80229;SDS011;69540;42.136;24.742;2023-06-05T11:12:27;3.30;;;3.05;;
80229;SDS011;69540;42.136;24.742;2023-06-05T11:15:13;4.00;;;3.35;;
80229;SDS011;69540;42.136;24.742;2023-06-05T11:17:40;3.70;;;3.40;;
80229;SDS011;69540;42.136;24.742;2023-06-05T11:27:54;3.50;;;3.20;;
80229;SDS011;69540;42.136;24.742;2023-06-05T11:30:29;3.50;;;3.20;;
80229;SDS011;69540;42.136;24.742;2023-06-05T11:33:05;3.20;;;2.90;;
80229;SDS011;69540;42.136;24.742;2023-06-05T11:35:33;3.17;;;2.88;;
80229;SDS011;69540;42.136;24.742;2023-06-05T11:38:10;3.67;;;2.90;;
80229;SDS011;69540;42.136;24.742;2023-06-05T11:40:36;3.30;;;3.00;;
80229;SDS011;69540;42.136;24.742;2023-06-05T11:43:03;3.25;;;3.05;;
80229;SDS011;69540;42.136;24.742;2023-06-05T11:45:31;3.35;;;3.05;;
80229;SDS011;69540;42.136;24.742;2023-06-05T11:50:34;3.90;;;2.90;;
80229;SDS011;69540;42.136;24.742;2023-06-05T11:53:05;2.72;;;2.53;;
80229;SDS011;69540;42.136;24.742;2023-06-05T11:55:37;3.35;;;3.03;;
80229;SDS011;69540;42.136;24.742;2023-06-05T12:00:47;3.40;;;3.10;;
80229;SDS011;69540;42.136;24.742;2023-06-05T12:03:17;2.88;;;2.67;;
80229;SDS011;69540;42.136;24.742;2023-06-05T12:08:24;3.00;;;2.80;;
80229;SDS011;69540;42.136;24.742;2023-06-05T12:10:53;4.35;;;3.10;;
80229;SDS011;69540;42.136;24.742;2023-06-05T12:13:21;3.42;;;3.13;;
80229;SDS011;69540;42.136;24.742;2023-06-05T12:15:56;3.65;;;3.20;;
80229;SDS011;69540;42.136;24.742;2023-06-05T12:18:31;3.38;;;2.78;;
80229;SDS011;69540;42.136;24.742;2023-06-05T12:21:00;3.10;;;2.80;;
80229;SDS011;69540;42.136;24.742;2023-06-05T12:23:28;2.95;;;2.75;;
80229;SDS011;69540;42.136;24.742;2023-06-05T12:26:03;2.92;;;2.70;;
80229;SDS011;69540;42.136;24.742;2023-06-05T12:28:29;3.20;;;2.70;;
80229;SDS011;69540;42.136;24.742;2023-06-05T12:30:56;2.88;;;2.67;;
80229;SDS011;69540;42.136;24.742;2023-06-05T12:33:23;3.42;;;2.85;;
80229;SDS011;69540;42.136;24.742;2023-06-05T12:36:08;3.13;;;2.88;;
80229;SDS011;69540;42.136;24.742;2023-06-05T12:38:38;2.90;;;2.70;;
80229;SDS011;69540;42.136;24.742;2023-06-05T12:41:05;2.83;;;2.55;;
80229;SDS011;69540;42.136;24.742;2023-06-05T12:43:34;2.45;;;2.25;;
80229;SDS011;69540;42.136;24.742;2023-06-05T12:46:00;3.92;;;3.03;;
80229;SDS011;69540;42.136;24.742;2023-06-05T12:48:27;2.40;;;2.20;;
80229;SDS011;69540;42.136;24.742;2023-06-05T12:50:52;3.88;;;2.72;;
80229;SDS011;69540;42.136;24.742;2023-06-05T12:53:19;2.97;;;2.70;;
80229;SDS011;69540;42.136;24.742;2023-06-05T12:55:45;2.80;;;2.60;;
80229;SDS011;69540;42.136;24.742;2023-06-05T12:58:11;2.80;;;2.60;;
80229;SDS011;69540;42.136;24.742;2023-06-05T13:00:37;2.97;;;2.70;;
80229;SDS011;69540;42.136;24.742;2023-06-05T13:03:03;2.70;;;2.50;;
80229;SDS011;69540;42.136;24.742;2023-06-05T13:05:29;2.85;;;2.65;;
80229;SDS011;69540;42.136;24.742;2023-06-05T13:07:58;4.20;;;2.90;;
80229;SDS011;69540;42.136;24.742;2023-06-05T13:10:26;3.03;;;2.72;;
80229;SDS011;69540;42.136;24.742;2023-06-05T13:12:51;2.95;;;2.70;;
80229;SDS011;69540;42.136;24.742;2023-06-05T13:15:17;2.80;;;2.60;;
80229;SDS011;69540;42.136;24.742;2023-06-05T13:17:42;2.80;;;2.60;;
80229;SDS011;69540;42.136;24.742;2023-06-05T13:20:08;3.13;;;2.60;;
80229;SDS011;69540;42.136;24.742;2023-06-05T13:22:38;2.88;;;2.67;;
80229;SDS011;69540;42.136;24.742;2023-06-05T13:25:05;3.20;;;2.60;;
80229;SDS011;69540;42.136;24.742;2023-06-05T13:27:32;2.78;;;2.50;;
80229;SDS011;69540;42.136;24.742;2023-06-05T13:29:58;2.83;;;2.63;;
80229;SDS011;69540;42.136;24.742;2023-06-05T13:32:23;2.50;;;2.30;;
80229;SDS011;69540;42.136;24.742;2023-06-05T13:34:49;4.07;;;2.45;;
80229;SDS011;69540;42.136;24.742;2023-06-05T13:37:15;2.67;;;2.47;;
80229;SDS011;69540;42.136;24.742;2023-06-05T13:39:41;2.67;;;2.47;;
80229;SDS011;69540;42.136;24.742;2023-06-05T13:42:07;2.92;;;2.50;;
80229;SDS011;69540;42.136;24.742;2023-06-05T13:44:33;2.72;;;2.53;;
80229;SDS011;69540;42.136;24.742;2023-06-05T13:46:59;2.65;;;2.45;;
80229;SDS011;69540;42.136;24.742;2023-06-05T13:49:28;2.55;;;2.35;;
80229;SDS011;69540;42.136;24.742;2023-06-05T13:51:56;2.80;;;2.60;;
80229;SDS011;69540;42.136;24.742;2023-06-05T13:54:22;2.90;;;2.70;;
80229;SDS011;69540;42.136;24.742;2023-06-05T13:56:48;3.53;;;2.70;;
80229;SDS011;69540;42.136;24.742;2023-06-05T13:59:14;2.70;;;2.50;;
80229;SDS011;69540;42.136;24.742;2023-06-05T14:01:39;2.60;;;2.40;;
80229;SDS011;69540;42.136;24.742;2023-06-05T14:04:05;2.97;;;2.67;;
80229;SDS011;69540;42.136;24.742;2023-06-05T14:06:31;2.83;;;2.63;;
80229;SDS011;69540;42.136;24.742;2023-06-05T14:08:57;2.90;;;2.70;;
80229;SDS011;69540;42.136;24.742;2023-06-05T14:11:23;2.70;;;2.50;;
80229;SDS011;69540;42.136;24.742;2023-06-05T14:13:48;2.80;;;2.60;;
80229;SDS011;69540;42.136;24.742;2023-06-05T14:16:14;3.85;;;3.03;;
80229;SDS011;69540;42.136;24.742;2023-06-05T14:18:40;3.28;;;2.83;;
80229;SDS011;69540;42.136;24.742;2023-06-05T14:21:06;3.90;;;2.85;;
80229;SDS011;69540;42.136;24.742;2023-06-05T14:23:31;3.95;;;2.65;;
80229;SDS011;69540;42.136;24.742;2023-06-05T14:25:57;3.03;;;2.80;;
80229;SDS011;69540;42.136;24.742;2023-06-05T14:28:22;2.70;;;2.50;;
80229;SDS011;69540;42.136;24.742;2023-06-05T14:30:48;2.97;;;2.60;;
80229;SDS011;69540;42.136;24.742;2023-06-05T14:33:14;2.40;;;2.30;;
80229;SDS011;69540;42.136;24.742;2023-06-05T14:35:42;2.70;;;2.50;;
80229;SDS011;69540;42.136;24.742;2023-06-05T14:38:08;2.50;;;2.30;;
80229;SDS011;69540;42.136;24.742;2023-06-05T14:40:37;2.75;;;2.55;;
80229;SDS011;69540;42.136;24.742;2023-06-05T14:43:06;3.47;;;2.83;;
80229;SDS011;69540;42.136;24.742;2023-06-05T14:45:32;2.90;;;2.70;;
80229;SDS011;69540;42.136;24.742;2023-06-05T14:47:58;3.00;;;2.70;;
80229;SDS011;69540;42.136;24.742;2023-06-05T14:50:23;3.20;;;2.90;;
80229;SDS011;69540;42.136;24.742;2023-06-05T14:52:49;2.97;;;2.50;;
80229;SDS011;69540;42.136;24.742;2023-06-05T14:55:15;4.35;;;2.58;;
80229;SDS011;69540;42.136;24.742;2023-06-05T14:57:40;3.00;;;2.55;;
80229;SDS011;69540;42.136;24.742;2023-06-05T15:00:06;3.80;;;3.00;;
80229;SDS011;69540;42.136;24.742;2023-06-05T15:02:34;2.50;;;2.30;;
80229;SDS011;69540;42.136;24.742;2023-06-05T15:05:00;2.90;;;2.70;;
80229;SDS011;69540;42.136;24.742;2023-06-05T15:07:36;3.17;;;2.58;;
80229;SDS011;69540;42.136;24.742;2023-06-05T15:10:03;2.58;;;2.38;;
80229;SDS011;69540;42.136;24.742;2023-06-05T15:12:30;2.80;;;2.60;;
80229;SDS011;69540;42.136;24.742;2023-06-05T15:14:56;3.20;;;2.60;;
80229;SDS011;69540;42.136;24.742;2023-06-05T15:17:22;2.40;;;2.20;;
80229;SDS011;69540;42.136;24.742;2023-06-05T15:19:47;2.50;;;2.30;;